sensor_id;sensor_type;location;lat;lon;timestamp;P1;durP1;ratioP1;P2;durP2;ratioP2
37459;SDS011;23318;50.966;5.284;2022-08-21T00:01:47;9.10;;;4.60;;
37459;SDS011;23318;50.966;5.284;2022-08-21T00:04:13;9.05;;;5.28;;
37459;SDS011;23318;50.966;5.284;2022-08-21T00:06:39;13.65;;;6.20;;
37459;SDS011;23318;50.966;5.284;2022-08-21T00:09:05;7.32;;;5.32;;
37459;SDS011;23318;50.966;5.284;2022-08-21T00:11:34;10.30;;;6.55;;
37459;SDS011;23318;50.966;5.284;2022-08-21T00:14:00;15.43;;;7.50;;
37459;SDS011;23318;50.966;5.284;2022-08-21T00:16:27;12.85;;;6.20;;
37459;SDS011;23318;50.966;5.284;2022-08-21T00:18:53;9.35;;;6.13;;
37459;SDS011;23318;50.966;5.284;2022-08-21T00:21:19;10.38;;;5.82;;
37459;SDS011;23318;50.966;5.284;2022-08-21T00:23:44;15.13;;;6.07;;
37459;SDS011;23318;50.966;5.284;2022-08-21T00:26:10;12.70;;;6.03;;
37459;SDS011;23318;50.966;5.284;2022-08-21T00:28:36;12.38;;;5.55;;
37459;SDS011;23318;50.966;5.284;2022-08-21T00:31:02;12.90;;;6.53;;
37459;SDS011;23318;50.966;5.284;2022-08-21T00:33:29;13.90;;;5.43;;
37459;SDS011;23318;50.966;5.284;2022-08-21T00:35:55;6.70;;;4.68;;
37459;SDS011;23318;50.966;5.284;2022-08-21T00:38:21;12.25;;;5.55;;
37459;SDS011;23318;50.966;5.284;2022-08-21T00:40:48;9.23;;;4.85;;
37459;SDS011;23318;50.966;5.284;2022-08-21T00:43:20;7.10;;;4.75;;
37459;SDS011;23318;50.966;5.284;2022-08-21T00:45:48;9.18;;;4.88;;
37459;SDS011;23318;50.966;5.284;2022-08-21T00:48:14;7.35;;;4.50;;
37459;SDS011;23318;50.966;5.284;2022-08-21T00:50:43;8.93;;;5.30;;
37459;SDS011;23318;50.966;5.284;2022-08-21T00:53:13;6.15;;;4.70;;
37459;SDS011;23318;50.966;5.284;2022-08-21T00:55:40;11.20;;;5.35;;
37459;SDS011;23318;50.966;5.284;2022-08-21T00:58:07;8.80;;;4.93;;
37459;SDS011;23318;50.966;5.284;2022-08-21T01:00:37;8.95;;;4.57;;
37459;SDS011;23318;50.966;5.284;2022-08-21T01:03:06;8.25;;;4.93;;
37459;SDS011;23318;50.966;5.284;2022-08-21T01:05:35;10.07;;;4.70;;
37459;SDS011;23318;50.966;5.284;2022-08-21T01:08:02;10.45;;;4.22;;
37459;SDS011;23318;50.966;5.284;2022-08-21T01:10:28;11.10;;;4.35;;
37459;SDS011;23318;50.966;5.284;2022-08-21T01:12:55;10.85;;;4.30;;
37459;SDS011;23318;50.966;5.284;2022-08-21T01:15:23;11.55;;;4.68;;
37459;SDS011;23318;50.966;5.284;2022-08-21T01:17:53;9.27;;;4.72;;
37459;SDS011;23318;50.966;5.284;2022-08-21T01:20:19;10.50;;;4.60;;
37459;SDS011;23318;50.966;5.284;2022-08-21T01:22:44;11.07;;;4.38;;
37459;SDS011;23318;50.966;5.284;2022-08-21T01:25:11;8.60;;;4.88;;
37459;SDS011;23318;50.966;5.284;2022-08-21T01:27:40;10.52;;;4.70;;
37459;SDS011;23318;50.966;5.284;2022-08-21T01:30:25;6.18;;;3.90;;
37459;SDS011;23318;50.966;5.284;2022-08-21T01:32:52;8.20;;;4.53;;
37459;SDS011;23318;50.966;5.284;2022-08-21T01:35:19;8.48;;;4.70;;
37459;SDS011;23318;50.966;5.284;2022-08-21T01:37:45;5.97;;;3.97;;
37459;SDS011;23318;50.966;5.284;2022-08-21T01:40:12;9.30;;;4.20;;
37459;SDS011;23318;50.966;5.284;2022-08-21T01:42:40;9.85;;;4.55;;
37459;SDS011;23318;50.966;5.284;2022-08-21T01:45:06;7.57;;;4.25;;
37459;SDS011;23318;50.966;5.284;2022-08-21T01:47:32;7.85;;;4.25;;
37459;SDS011;23318;50.966;5.284;2022-08-21T01:49:59;15.90;;;4.72;;
37459;SDS011;23318;50.966;5.284;2022-08-21T01:52:24;8.75;;;4.72;;
37459;SDS011;23318;50.966;5.284;2022-08-21T01:54:50;9.98;;;4.47;;
37459;SDS011;23318;50.966;5.284;2022-08-21T01:57:16;9.90;;;5.28;;
37459;SDS011;23318;50.966;5.284;2022-08-21T01:59:42;9.40;;;5.45;;
37459;SDS011;23318;50.966;5.284;2022-08-21T02:02:08;8.60;;;5.07;;
37459;SDS011;23318;50.966;5.284;2022-08-21T02:04:33;13.73;;;4.90;;
37459;SDS011;23318;50.966;5.284;2022-08-21T02:06:59;10.45;;;5.45;;
37459;SDS011;23318;50.966;5.284;2022-08-21T02:09:26;7.72;;;4.78;;
37459;SDS011;23318;50.966;5.284;2022-08-21T02:11:52;9.02;;;4.97;;
37459;SDS011;23318;50.966;5.284;2022-08-21T02:14:18;10.02;;;4.18;;
37459;SDS011;23318;50.966;5.284;2022-08-21T02:16:44;10.48;;;4.80;;
37459;SDS011;23318;50.966;5.284;2022-08-21T02:19:11;8.48;;;5.18;;
37459;SDS011;23318;50.966;5.284;2022-08-21T02:21:38;7.28;;;4.43;;
37459;SDS011;23318;50.966;5.284;2022-08-21T02:24:05;9.38;;;4.95;;
37459;SDS011;23318;50.966;5.284;2022-08-21T02:26:31;7.43;;;4.30;;
37459;SDS011;23318;50.966;5.284;2022-08-21T02:28:57;6.60;;;4.38;;
37459;SDS011;23318;50.966;5.284;2022-08-21T02:31:23;5.78;;;4.05;;
37459;SDS011;23318;50.966;5.284;2022-08-21T02:33:49;6.35;;;4.75;;
37459;SDS011;23318;50.966;5.284;2022-08-21T02:36:16;8.55;;;4.60;;
37459;SDS011;23318;50.966;5.284;2022-08-21T02:38:42;8.60;;;4.10;;
37459;SDS011;23318;50.966;5.284;2022-08-21T02:41:13;12.82;;;4.32;;
37459;SDS011;23318;50.966;5.284;2022-08-21T02:43:44;5.18;;;3.75;;
37459;SDS011;23318;50.966;5.284;2022-08-21T02:46:11;6.47;;;4.00;;
37459;SDS011;23318;50.966;5.284;2022-08-21T02:48:39;8.70;;;4.18;;
37459;SDS011;23318;50.966;5.284;2022-08-21T02:51:09;9.00;;;4.30;;
37459;SDS011;23318;50.966;5.284;2022-08-21T02:53:37;8.95;;;4.10;;
37459;SDS011;23318;50.966;5.284;2022-08-21T02:56:04;6.10;;;3.80;;
37459;SDS011;23318;50.966;5.284;2022-08-21T02:58:42;4.97;;;3.30;;
37459;SDS011;23318;50.966;5.284;2022-08-21T03:01:11;6.65;;;3.67;;
37459;SDS011;23318;50.966;5.284;2022-08-21T03:03:38;6.50;;;3.63;;
37459;SDS011;23318;50.966;5.284;2022-08-21T03:06:06;8.98;;;3.47;;
37459;SDS011;23318;50.966;5.284;2022-08-21T03:08:33;9.23;;;3.70;;
37459;SDS011;23318;50.966;5.284;2022-08-21T03:10:59;14.20;;;3.80;;
37459;SDS011;23318;50.966;5.284;2022-08-21T03:13:26;9.05;;;3.80;;
37459;SDS011;23318;50.966;5.284;2022-08-21T03:15:52;5.43;;;4.10;;
37459;SDS011;23318;50.966;5.284;2022-08-21T03:18:18;8.80;;;3.80;;
37459;SDS011;23318;50.966;5.284;2022-08-21T03:20:45;10.00;;;4.40;;
37459;SDS011;23318;50.966;5.284;2022-08-21T03:23:11;7.95;;;4.20;;
37459;SDS011;23318;50.966;5.284;2022-08-21T03:25:37;9.32;;;4.22;;
37459;SDS011;23318;50.966;5.284;2022-08-21T03:28:04;12.00;;;4.00;;
37459;SDS011;23318;50.966;5.284;2022-08-21T03:30:31;8.32;;;3.65;;
37459;SDS011;23318;50.966;5.284;2022-08-21T03:32:58;11.88;;;4.05;;
37459;SDS011;23318;50.966;5.284;2022-08-21T03:35:24;7.57;;;3.92;;
37459;SDS011;23318;50.966;5.284;2022-08-21T03:37:51;10.20;;;3.75;;
37459;SDS011;23318;50.966;5.284;2022-08-21T03:40:17;7.65;;;3.55;;
37459;SDS011;23318;50.966;5.284;2022-08-21T03:42:45;8.82;;;3.20;;
37459;SDS011;23318;50.966;5.284;2022-08-21T03:45:12;11.07;;;4.28;;
37459;SDS011;23318;50.966;5.284;2022-08-21T03:47:49;10.13;;;4.40;;
37459;SDS011;23318;50.966;5.284;2022-08-21T03:50:16;9.02;;;4.05;;
37459;SDS011;23318;50.966;5.284;2022-08-21T03:52:42;9.10;;;3.58;;
37459;SDS011;23318;50.966;5.284;2022-08-21T03:55:07;8.80;;;3.42;;
37459;SDS011;23318;50.966;5.284;2022-08-21T03:57:33;6.30;;;4.25;;
37459;SDS011;23318;50.966;5.284;2022-08-21T03:59:59;9.77;;;4.35;;
37459;SDS011;23318;50.966;5.284;2022-08-21T04:02:24;6.05;;;3.47;;
37459;SDS011;23318;50.966;5.284;2022-08-21T04:04:50;4.32;;;3.25;;
37459;SDS011;23318;50.966;5.284;2022-08-21T04:07:16;8.43;;;3.97;;
37459;SDS011;23318;50.966;5.284;2022-08-21T04:09:42;9.65;;;3.60;;
37459;SDS011;23318;50.966;5.284;2022-08-21T04:12:08;10.50;;;4.05;;
37459;SDS011;23318;50.966;5.284;2022-08-21T04:14:34;11.18;;;3.63;;
37459;SDS011;23318;50.966;5.284;2022-08-21T04:16:59;8.52;;;4.47;;
37459;SDS011;23318;50.966;5.284;2022-08-21T04:19:25;13.65;;;3.92;;
37459;SDS011;23318;50.966;5.284;2022-08-21T04:21:51;8.75;;;3.80;;
37459;SDS011;23318;50.966;5.284;2022-08-21T04:24:17;9.85;;;3.83;;
37459;SDS011;23318;50.966;5.284;2022-08-21T04:26:43;7.28;;;4.18;;
37459;SDS011;23318;50.966;5.284;2022-08-21T04:29:09;7.45;;;3.95;;
37459;SDS011;23318;50.966;5.284;2022-08-21T04:31:35;9.02;;;4.60;;
37459;SDS011;23318;50.966;5.284;2022-08-21T04:34:02;10.68;;;4.47;;
37459;SDS011;23318;50.966;5.284;2022-08-21T04:36:29;8.32;;;4.10;;
37459;SDS011;23318;50.966;5.284;2022-08-21T04:38:56;9.07;;;4.07;;
37459;SDS011;23318;50.966;5.284;2022-08-21T04:41:22;8.43;;;4.18;;
37459;SDS011;23318;50.966;5.284;2022-08-21T04:43:47;9.95;;;4.68;;
37459;SDS011;23318;50.966;5.284;2022-08-21T04:46:13;7.97;;;4.15;;
37459;SDS011;23318;50.966;5.284;2022-08-21T04:48:38;6.65;;;3.83;;
37459;SDS011;23318;50.966;5.284;2022-08-21T04:53:55;9.32;;;4.70;;
37459;SDS011;23318;50.966;5.284;2022-08-21T04:56:25;7.95;;;5.07;;
37459;SDS011;23318;50.966;5.284;2022-08-21T04:58:56;6.45;;;3.83;;
37459;SDS011;23318;50.966;5.284;2022-08-21T05:01:25;7.45;;;4.03;;
37459;SDS011;23318;50.966;5.284;2022-08-21T05:03:54;8.80;;;4.32;;
37459;SDS011;23318;50.966;5.284;2022-08-21T05:06:23;10.90;;;4.43;;
37459;SDS011;23318;50.966;5.284;2022-08-21T05:08:50;10.75;;;4.40;;
37459;SDS011;23318;50.966;5.284;2022-08-21T05:11:19;9.60;;;3.63;;
37459;SDS011;23318;50.966;5.284;2022-08-21T05:13:47;7.18;;;4.18;;
37459;SDS011;23318;50.966;5.284;2022-08-21T05:16:13;6.40;;;4.10;;
37459;SDS011;23318;50.966;5.284;2022-08-21T05:18:39;7.07;;;3.67;;
37459;SDS011;23318;50.966;5.284;2022-08-21T05:21:05;12.70;;;3.85;;
37459;SDS011;23318;50.966;5.284;2022-08-21T05:23:30;10.23;;;4.05;;
37459;SDS011;23318;50.966;5.284;2022-08-21T05:25:56;8.13;;;3.60;;
37459;SDS011;23318;50.966;5.284;2022-08-21T05:28:22;11.75;;;4.32;;
37459;SDS011;23318;50.966;5.284;2022-08-21T05:30:48;9.52;;;3.60;;
37459;SDS011;23318;50.966;5.284;2022-08-21T05:33:14;8.88;;;4.05;;
37459;SDS011;23318;50.966;5.284;2022-08-21T05:35:40;10.23;;;3.80;;
37459;SDS011;23318;50.966;5.284;2022-08-21T05:38:06;11.70;;;4.00;;
37459;SDS011;23318;50.966;5.284;2022-08-21T05:40:32;9.77;;;3.92;;
37459;SDS011;23318;50.966;5.284;2022-08-21T05:42:58;10.15;;;4.40;;
37459;SDS011;23318;50.966;5.284;2022-08-21T05:45:26;6.85;;;3.45;;
37459;SDS011;23318;50.966;5.284;2022-08-21T05:47:56;9.33;;;4.07;;
37459;SDS011;23318;50.966;5.284;2022-08-21T05:50:22;13.93;;;3.80;;
37459;SDS011;23318;50.966;5.284;2022-08-21T05:52:48;8.63;;;3.42;;
37459;SDS011;23318;50.966;5.284;2022-08-21T05:55:14;10.93;;;3.85;;
37459;SDS011;23318;50.966;5.284;2022-08-21T05:57:39;13.73;;;3.63;;
37459;SDS011;23318;50.966;5.284;2022-08-21T06:00:08;12.40;;;3.22;;
37459;SDS011;23318;50.966;5.284;2022-08-21T06:02:37;10.73;;;3.65;;
37459;SDS011;23318;50.966;5.284;2022-08-21T06:05:03;8.57;;;3.60;;
37459;SDS011;23318;50.966;5.284;2022-08-21T06:07:29;8.07;;;3.33;;
37459;SDS011;23318;50.966;5.284;2022-08-21T06:09:55;9.27;;;3.17;;
37459;SDS011;23318;50.966;5.284;2022-08-21T06:12:20;8.30;;;3.47;;
37459;SDS011;23318;50.966;5.284;2022-08-21T06:14:46;14.23;;;3.65;;
37459;SDS011;23318;50.966;5.284;2022-08-21T06:17:12;7.85;;;2.90;;
37459;SDS011;23318;50.966;5.284;2022-08-21T06:19:39;12.75;;;3.88;;
37459;SDS011;23318;50.966;5.284;2022-08-21T06:22:05;10.88;;;3.20;;
37459;SDS011;23318;50.966;5.284;2022-08-21T06:24:31;7.25;;;3.00;;
37459;SDS011;23318;50.966;5.284;2022-08-21T06:26:57;13.65;;;3.47;;
37459;SDS011;23318;50.966;5.284;2022-08-21T06:29:28;6.85;;;3.40;;
37459;SDS011;23318;50.966;5.284;2022-08-21T06:31:54;11.95;;;3.33;;
37459;SDS011;23318;50.966;5.284;2022-08-21T06:34:21;11.02;;;2.90;;
37459;SDS011;23318;50.966;5.284;2022-08-21T06:36:46;8.32;;;2.90;;
37459;SDS011;23318;50.966;5.284;2022-08-21T06:39:12;10.15;;;3.25;;
37459;SDS011;23318;50.966;5.284;2022-08-21T06:41:38;10.95;;;3.45;;
37459;SDS011;23318;50.966;5.284;2022-08-21T06:44:04;16.55;;;4.05;;
37459;SDS011;23318;50.966;5.284;2022-08-21T06:46:30;9.02;;;3.45;;
37459;SDS011;23318;50.966;5.284;2022-08-21T06:48:56;19.38;;;3.40;;
37459;SDS011;23318;50.966;5.284;2022-08-21T06:51:23;10.35;;;2.92;;
37459;SDS011;23318;50.966;5.284;2022-08-21T06:53:50;13.85;;;3.40;;
37459;SDS011;23318;50.966;5.284;2022-08-21T06:56:16;12.13;;;3.55;;
37459;SDS011;23318;50.966;5.284;2022-08-21T06:58:43;7.55;;;2.75;;
37459;SDS011;23318;50.966;5.284;2022-08-21T07:01:08;9.57;;;3.38;;
37459;SDS011;23318;50.966;5.284;2022-08-21T07:03:35;9.65;;;2.90;;
37459;SDS011;23318;50.966;5.284;2022-08-21T07:06:03;9.88;;;3.22;;
37459;SDS011;23318;50.966;5.284;2022-08-21T07:08:30;9.13;;;2.75;;
37459;SDS011;23318;50.966;5.284;2022-08-21T07:10:57;12.40;;;3.28;;
37459;SDS011;23318;50.966;5.284;2022-08-21T07:13:24;9.30;;;2.83;;
37459;SDS011;23318;50.966;5.284;2022-08-21T07:15:50;11.90;;;2.88;;
37459;SDS011;23318;50.966;5.284;2022-08-21T07:18:16;7.88;;;2.60;;
37459;SDS011;23318;50.966;5.284;2022-08-21T07:20:42;7.43;;;2.20;;
37459;SDS011;23318;50.966;5.284;2022-08-21T07:23:09;9.40;;;2.63;;
37459;SDS011;23318;50.966;5.284;2022-08-21T07:25:43;9.65;;;2.53;;
37459;SDS011;23318;50.966;5.284;2022-08-21T07:28:09;12.95;;;2.50;;
37459;SDS011;23318;50.966;5.284;2022-08-21T07:30:34;7.10;;;2.35;;
37459;SDS011;23318;50.966;5.284;2022-08-21T07:33:00;8.20;;;2.55;;
37459;SDS011;23318;50.966;5.284;2022-08-21T07:35:26;10.93;;;2.55;;
37459;SDS011;23318;50.966;5.284;2022-08-21T07:37:53;9.70;;;2.55;;
37459;SDS011;23318;50.966;5.284;2022-08-21T07:40:18;7.63;;;2.42;;
37459;SDS011;23318;50.966;5.284;2022-08-21T07:42:45;9.85;;;2.95;;
37459;SDS011;23318;50.966;5.284;2022-08-21T07:45:13;10.88;;;2.67;;
37459;SDS011;23318;50.966;5.284;2022-08-21T07:47:39;8.60;;;2.05;;
37459;SDS011;23318;50.966;5.284;2022-08-21T07:50:05;10.02;;;2.92;;
37459;SDS011;23318;50.966;5.284;2022-08-21T07:52:32;10.30;;;2.53;;
37459;SDS011;23318;50.966;5.284;2022-08-21T07:54:58;14.32;;;2.97;;
37459;SDS011;23318;50.966;5.284;2022-08-21T07:57:24;7.75;;;2.20;;
37459;SDS011;23318;50.966;5.284;2022-08-21T07:59:50;8.80;;;2.65;;
37459;SDS011;23318;50.966;5.284;2022-08-21T08:02:25;17.25;;;3.83;;
37459;SDS011;23318;50.966;5.284;2022-08-21T08:04:52;10.25;;;2.83;;
37459;SDS011;23318;50.966;5.284;2022-08-21T08:07:19;7.63;;;2.35;;
37459;SDS011;23318;50.966;5.284;2022-08-21T08:09:45;9.18;;;1.90;;
37459;SDS011;23318;50.966;5.284;2022-08-21T08:12:10;11.95;;;2.17;;
37459;SDS011;23318;50.966;5.284;2022-08-21T08:14:37;13.68;;;2.83;;
37459;SDS011;23318;50.966;5.284;2022-08-21T08:17:02;9.73;;;2.72;;
37459;SDS011;23318;50.966;5.284;2022-08-21T08:19:28;7.82;;;2.13;;
37459;SDS011;23318;50.966;5.284;2022-08-21T08:21:55;9.18;;;2.45;;
37459;SDS011;23318;50.966;5.284;2022-08-21T08:24:21;8.52;;;2.42;;
37459;SDS011;23318;50.966;5.284;2022-08-21T08:26:46;10.27;;;2.30;;
37459;SDS011;23318;50.966;5.284;2022-08-21T08:29:12;7.15;;;2.17;;
37459;SDS011;23318;50.966;5.284;2022-08-21T08:31:38;7.78;;;2.28;;
37459;SDS011;23318;50.966;5.284;2022-08-21T08:34:04;10.55;;;2.50;;
37459;SDS011;23318;50.966;5.284;2022-08-21T08:36:33;8.75;;;1.45;;
37459;SDS011;23318;50.966;5.284;2022-08-21T08:39:02;9.55;;;2.33;;
37459;SDS011;23318;50.966;5.284;2022-08-21T08:41:29;8.73;;;2.25;;
37459;SDS011;23318;50.966;5.284;2022-08-21T08:44:04;10.45;;;2.22;;
37459;SDS011;23318;50.966;5.284;2022-08-21T08:46:39;5.63;;;1.77;;
37459;SDS011;23318;50.966;5.284;2022-08-21T08:49:14;10.05;;;2.10;;
37459;SDS011;23318;50.966;5.284;2022-08-21T08:52:20;8.32;;;1.73;;
37459;SDS011;23318;50.966;5.284;2022-08-21T08:54:56;6.35;;;1.40;;
37459;SDS011;23318;50.966;5.284;2022-08-21T08:57:32;5.20;;;2.00;;
37459;SDS011;23318;50.966;5.284;2022-08-21T09:00:00;6.18;;;1.88;;
37459;SDS011;23318;50.966;5.284;2022-08-21T09:02:29;8.93;;;1.77;;
37459;SDS011;23318;50.966;5.284;2022-08-21T09:04:55;9.52;;;1.65;;
37459;SDS011;23318;50.966;5.284;2022-08-21T09:07:44;5.50;;;1.75;;
37459;SDS011;23318;50.966;5.284;2022-08-21T09:10:19;5.55;;;1.30;;
37459;SDS011;23318;50.966;5.284;2022-08-21T09:13:04;11.65;;;1.60;;
37459;SDS011;23318;50.966;5.284;2022-08-21T09:26:29;3.58;;;1.02;;
37459;SDS011;23318;50.966;5.284;2022-08-21T09:28:59;8.57;;;1.35;;
37459;SDS011;23318;50.966;5.284;2022-08-21T09:31:33;9.23;;;1.40;;
37459;SDS011;23318;50.966;5.284;2022-08-21T09:34:06;6.70;;;1.05;;
37459;SDS011;23318;50.966;5.284;2022-08-21T09:39:05;3.28;;;1.10;;
37459;SDS011;23318;50.966;5.284;2022-08-21T09:41:33;7.25;;;1.17;;
37459;SDS011;23318;50.966;5.284;2022-08-21T09:44:01;5.18;;;1.00;;
37459;SDS011;23318;50.966;5.284;2022-08-21T09:46:30;5.45;;;1.00;;
37459;SDS011;23318;50.966;5.284;2022-08-21T09:48:58;6.88;;;1.48;;
37459;SDS011;23318;50.966;5.284;2022-08-21T09:51:35;7.03;;;1.50;;
37459;SDS011;23318;50.966;5.284;2022-08-21T09:56:34;4.60;;;1.17;;
37459;SDS011;23318;50.966;5.284;2022-08-21T10:01:52;2.83;;;0.98;;
37459;SDS011;23318;50.966;5.284;2022-08-21T10:04:20;6.78;;;1.27;;
37459;SDS011;23318;50.966;5.284;2022-08-21T10:06:52;5.72;;;1.08;;
37459;SDS011;23318;50.966;5.284;2022-08-21T10:09:18;4.47;;;1.08;;
37459;SDS011;23318;50.966;5.284;2022-08-21T10:11:51;6.47;;;1.00;;
37459;SDS011;23318;50.966;5.284;2022-08-21T10:14:37;4.40;;;1.35;;
37459;SDS011;23318;50.966;5.284;2022-08-21T10:17:07;5.70;;;1.27;;
37459;SDS011;23318;50.966;5.284;2022-08-21T10:19:57;3.47;;;0.90;;
37459;SDS011;23318;50.966;5.284;2022-08-21T10:22:32;4.72;;;1.23;;
37459;SDS011;23318;50.966;5.284;2022-08-21T10:36:04;5.88;;;1.10;;
37459;SDS011;23318;50.966;5.284;2022-08-21T10:43:42;5.85;;;1.35;;
37459;SDS011;23318;50.966;5.284;2022-08-21T10:48:57;6.90;;;1.48;;
37459;SDS011;23318;50.966;5.284;2022-08-21T10:51:37;8.27;;;1.75;;
37459;SDS011;23318;50.966;5.284;2022-08-21T10:54:17;4.30;;;1.27;;
37459;SDS011;23318;50.966;5.284;2022-08-21T10:56:56;6.47;;;1.50;;
37459;SDS011;23318;50.966;5.284;2022-08-21T11:02:00;7.80;;;1.70;;
37459;SDS011;23318;50.966;5.284;2022-08-21T11:04:36;6.32;;;1.25;;
37459;SDS011;23318;50.966;5.284;2022-08-21T11:10:01;5.03;;;1.63;;
37459;SDS011;23318;50.966;5.284;2022-08-21T11:12:34;5.93;;;1.70;;
37459;SDS011;23318;50.966;5.284;2022-08-21T11:15:23;6.20;;;1.88;;
37459;SDS011;23318;50.966;5.284;2022-08-21T11:18:04;14.60;;;9.05;;
37459;SDS011;23318;50.966;5.284;2022-08-21T11:23:57;12.80;;;2.60;;
37459;SDS011;23318;50.966;5.284;2022-08-21T11:26:45;5.22;;;1.45;;
37459;SDS011;23318;50.966;5.284;2022-08-21T11:29:27;7.85;;;1.77;;
37459;SDS011;23318;50.966;5.284;2022-08-21T11:39:59;11.80;;;3.33;;
37459;SDS011;23318;50.966;5.284;2022-08-21T11:45:20;7.45;;;1.63;;
37459;SDS011;23318;50.966;5.284;2022-08-21T11:50:45;7.13;;;1.88;;
37459;SDS011;23318;50.966;5.284;2022-08-21T11:53:16;3.03;;;1.33;;
37459;SDS011;23318;50.966;5.284;2022-08-21T11:55:45;5.85;;;1.95;;
37459;SDS011;23318;50.966;5.284;2022-08-21T11:58:17;6.38;;;1.73;;
37459;SDS011;23318;50.966;5.284;2022-08-21T12:03:25;5.43;;;1.63;;
37459;SDS011;23318;50.966;5.284;2022-08-21T12:06:00;5.30;;;1.52;;
37459;SDS011;23318;50.966;5.284;2022-08-21T12:08:34;6.07;;;1.58;;
37459;SDS011;23318;50.966;5.284;2022-08-21T12:13:33;7.03;;;1.45;;
37459;SDS011;23318;50.966;5.284;2022-08-21T12:18:34;6.28;;;1.50;;
37459;SDS011;23318;50.966;5.284;2022-08-21T12:21:24;7.85;;;2.05;;
37459;SDS011;23318;50.966;5.284;2022-08-21T12:24:15;7.38;;;1.80;;
37459;SDS011;23318;50.966;5.284;2022-08-21T12:27:44;8.15;;;1.50;;
37459;SDS011;23318;50.966;5.284;2022-08-21T12:32:23;9.82;;;2.15;;
37459;SDS011;23318;50.966;5.284;2022-08-21T12:34:55;11.68;;;1.75;;
37459;SDS011;23318;50.966;5.284;2022-08-21T12:37:30;8.07;;;1.60;;
37459;SDS011;23318;50.966;5.284;2022-08-21T12:42:47;5.93;;;1.90;;
37459;SDS011;23318;50.966;5.284;2022-08-21T12:47:49;5.97;;;1.73;;
37459;SDS011;23318;50.966;5.284;2022-08-21T12:50:24;3.90;;;1.25;;
37459;SDS011;23318;50.966;5.284;2022-08-21T12:55:44;5.88;;;1.70;;
37459;SDS011;23318;50.966;5.284;2022-08-21T12:58:19;5.00;;;1.52;;
37459;SDS011;23318;50.966;5.284;2022-08-21T13:00:50;7.10;;;1.73;;
37459;SDS011;23318;50.966;5.284;2022-08-21T13:03:18;6.68;;;1.45;;
37459;SDS011;23318;50.966;5.284;2022-08-21T13:05:44;4.70;;;1.73;;
37459;SDS011;23318;50.966;5.284;2022-08-21T13:08:11;5.85;;;1.58;;
37459;SDS011;23318;50.966;5.284;2022-08-21T13:10:39;6.43;;;1.58;;
37459;SDS011;23318;50.966;5.284;2022-08-21T13:13:14;7.78;;;1.63;;
37459;SDS011;23318;50.966;5.284;2022-08-21T13:15:44;7.10;;;1.95;;
37459;SDS011;23318;50.966;5.284;2022-08-21T13:18:18;6.18;;;1.58;;
37459;SDS011;23318;50.966;5.284;2022-08-21T13:20:49;7.35;;;2.00;;
37459;SDS011;23318;50.966;5.284;2022-08-21T13:23:20;6.13;;;1.52;;
37459;SDS011;23318;50.966;5.284;2022-08-21T13:25:54;7.85;;;2.03;;
37459;SDS011;23318;50.966;5.284;2022-08-21T13:28:21;5.97;;;1.60;;
37459;SDS011;23318;50.966;5.284;2022-08-21T13:30:48;7.18;;;2.28;;
37459;SDS011;23318;50.966;5.284;2022-08-21T13:33:20;7.78;;;1.80;;
37459;SDS011;23318;50.966;5.284;2022-08-21T13:35:57;5.15;;;1.90;;
37459;SDS011;23318;50.966;5.284;2022-08-21T13:38:50;8.43;;;1.90;;
37459;SDS011;23318;50.966;5.284;2022-08-21T13:41:23;7.35;;;1.85;;
37459;SDS011;23318;50.966;5.284;2022-08-21T13:43:59;7.72;;;2.00;;
37459;SDS011;23318;50.966;5.284;2022-08-21T13:46:29;6.63;;;1.90;;
37459;SDS011;23318;50.966;5.284;2022-08-21T13:49:01;5.78;;;1.70;;
37459;SDS011;23318;50.966;5.284;2022-08-21T13:51:30;8.48;;;1.90;;
37459;SDS011;23318;50.966;5.284;2022-08-21T13:53:56;8.48;;;1.75;;
37459;SDS011;23318;50.966;5.284;2022-08-21T13:56:41;8.20;;;1.45;;
37459;SDS011;23318;50.966;5.284;2022-08-21T13:59:09;7.65;;;1.60;;
37459;SDS011;23318;50.966;5.284;2022-08-21T14:04:26;3.92;;;1.50;;
37459;SDS011;23318;50.966;5.284;2022-08-21T14:06:56;7.47;;;1.60;;
37459;SDS011;23318;50.966;5.284;2022-08-21T14:09:34;5.75;;;1.52;;
37459;SDS011;23318;50.966;5.284;2022-08-21T14:12:12;6.85;;;1.52;;
37459;SDS011;23318;50.966;5.284;2022-08-21T14:14:44;6.88;;;1.48;;
37459;SDS011;23318;50.966;5.284;2022-08-21T14:17:12;6.97;;;1.40;;
37459;SDS011;23318;50.966;5.284;2022-08-21T14:19:50;9.68;;;2.13;;
37459;SDS011;23318;50.966;5.284;2022-08-21T14:22:23;6.30;;;1.48;;
37459;SDS011;23318;50.966;5.284;2022-08-21T14:25:04;5.78;;;1.52;;
37459;SDS011;23318;50.966;5.284;2022-08-21T14:27:31;9.98;;;1.58;;
37459;SDS011;23318;50.966;5.284;2022-08-21T14:29:59;9.48;;;1.67;;
37459;SDS011;23318;50.966;5.284;2022-08-21T14:32:39;5.22;;;1.88;;
37459;SDS011;23318;50.966;5.284;2022-08-21T14:35:06;4.38;;;1.65;;
37459;SDS011;23318;50.966;5.284;2022-08-21T14:37:32;3.97;;;1.60;;
37459;SDS011;23318;50.966;5.284;2022-08-21T14:39:59;5.28;;;1.42;;
37459;SDS011;23318;50.966;5.284;2022-08-21T14:42:24;9.10;;;2.10;;
37459;SDS011;23318;50.966;5.284;2022-08-21T14:44:50;7.22;;;1.50;;
37459;SDS011;23318;50.966;5.284;2022-08-21T14:47:18;5.00;;;1.75;;
37459;SDS011;23318;50.966;5.284;2022-08-21T14:49:44;5.25;;;1.75;;
37459;SDS011;23318;50.966;5.284;2022-08-21T14:52:10;5.65;;;1.70;;
37459;SDS011;23318;50.966;5.284;2022-08-21T14:54:36;7.72;;;1.80;;
37459;SDS011;23318;50.966;5.284;2022-08-21T14:57:04;7.43;;;2.05;;
37459;SDS011;23318;50.966;5.284;2022-08-21T14:59:31;7.22;;;1.50;;
37459;SDS011;23318;50.966;5.284;2022-08-21T15:01:57;7.38;;;1.85;;
37459;SDS011;23318;50.966;5.284;2022-08-21T15:04:23;7.35;;;1.50;;
37459;SDS011;23318;50.966;5.284;2022-08-21T15:06:49;4.82;;;1.55;;
37459;SDS011;23318;50.966;5.284;2022-08-21T15:09:15;5.57;;;1.63;;
37459;SDS011;23318;50.966;5.284;2022-08-21T15:11:41;5.20;;;1.52;;
37459;SDS011;23318;50.966;5.284;2022-08-21T15:14:08;5.10;;;1.85;;
37459;SDS011;23318;50.966;5.284;2022-08-21T15:16:39;8.68;;;2.00;;
37459;SDS011;23318;50.966;5.284;2022-08-21T15:19:05;6.10;;;1.77;;
37459;SDS011;23318;50.966;5.284;2022-08-21T15:21:30;7.53;;;1.70;;
37459;SDS011;23318;50.966;5.284;2022-08-21T15:23:56;7.95;;;1.90;;
37459;SDS011;23318;50.966;5.284;2022-08-21T15:26:22;7.28;;;1.67;;
37459;SDS011;23318;50.966;5.284;2022-08-21T15:28:48;6.47;;;1.70;;
37459;SDS011;23318;50.966;5.284;2022-08-21T15:31:14;7.55;;;1.33;;
37459;SDS011;23318;50.966;5.284;2022-08-21T15:33:39;5.72;;;1.95;;
37459;SDS011;23318;50.966;5.284;2022-08-21T15:36:05;6.35;;;1.45;;
37459;SDS011;23318;50.966;5.284;2022-08-21T15:38:31;4.88;;;1.48;;
37459;SDS011;23318;50.966;5.284;2022-08-21T15:40:57;6.90;;;1.52;;
37459;SDS011;23318;50.966;5.284;2022-08-21T15:43:24;7.05;;;1.83;;
37459;SDS011;23318;50.966;5.284;2022-08-21T15:45:52;6.88;;;1.33;;
37459;SDS011;23318;50.966;5.284;2022-08-21T15:48:18;8.27;;;1.80;;
37459;SDS011;23318;50.966;5.284;2022-08-21T15:50:43;4.70;;;1.63;;
37459;SDS011;23318;50.966;5.284;2022-08-21T15:53:09;5.97;;;1.60;;
37459;SDS011;23318;50.966;5.284;2022-08-21T15:55:35;6.70;;;1.60;;
37459;SDS011;23318;50.966;5.284;2022-08-21T15:58:01;4.93;;;1.38;;
37459;SDS011;23318;50.966;5.284;2022-08-21T16:00:29;9.05;;;2.20;;
37459;SDS011;23318;50.966;5.284;2022-08-21T16:02:59;6.93;;;1.83;;
37459;SDS011;23318;50.966;5.284;2022-08-21T16:05:27;6.68;;;2.50;;
37459;SDS011;23318;50.966;5.284;2022-08-21T16:07:53;9.00;;;1.98;;
37459;SDS011;23318;50.966;5.284;2022-08-21T16:10:21;10.27;;;1.95;;
37459;SDS011;23318;50.966;5.284;2022-08-21T16:12:52;6.43;;;1.90;;
37459;SDS011;23318;50.966;5.284;2022-08-21T16:15:22;6.07;;;1.45;;
37459;SDS011;23318;50.966;5.284;2022-08-21T16:17:49;12.13;;;2.13;;
37459;SDS011;23318;50.966;5.284;2022-08-21T16:20:17;7.18;;;1.75;;